createdAt,value
2023-02-23T00:00:55.343Z,76.95
2023-02-23T00:01:58.787Z,77.40
2023-02-23T00:03:02.732Z,77.28
2023-02-23T00:04:07.163Z,76.99
2023-02-23T00:05:09.240Z,77.13
2023-02-23T00:06:12.143Z,78.03
2023-02-23T00:07:14.070Z,77.96
2023-02-23T00:08:16.327Z,78.26
2023-02-23T00:09:19.916Z,78.57
2023-02-23T00:10:24.374Z,78.92
2023-02-23T00:11:27.515Z,78.92
2023-02-23T00:12:29.533Z,78.85
2023-02-23T00:13:33.246Z,78.63
2023-02-23T00:14:36.478Z,79.17
2023-02-23T00:15:38.415Z,78.79
2023-02-23T00:16:41.382Z,79.39
2023-02-23T00:17:45.248Z,79.12
2023-02-23T00:18:50.869Z,79.30
2023-02-23T00:19:52.960Z,79.82
2023-02-23T00:20:57.816Z,79.31
2023-02-23T00:21:59.743Z,79.70
2023-02-23T00:23:02.001Z,80.16
2023-02-23T00:24:06.706Z,79.95
2023-02-23T00:25:10.557Z,79.96
2023-02-23T00:26:12.969Z,79.66
2023-02-23T00:27:15.321Z,80.49
2023-02-23T00:28:17.316Z,79.97
2023-02-23T00:29:22.451Z,80.33
2023-02-23T00:30:24.582Z,79.86
2023-02-23T00:31:27.665Z,79.20
2023-02-23T00:32:29.862Z,78.40
2023-02-23T00:33:31.927Z,78.83
2023-02-23T00:34:36.312Z,79.09
2023-02-23T00:35:38.243Z,78.91
2023-02-23T00:36:40.997Z,78.81
2023-02-23T00:37:47.607Z,78.36
2023-02-23T00:38:52.942Z,78.82
2023-02-23T00:39:56.564Z,78.33
2023-02-23T00:40:58.670Z,78.49
2023-02-23T00:42:00.557Z,78.51
2023-02-23T00:43:02.479Z,78.08
2023-02-23T00:44:04.415Z,77.74
2023-02-23T00:45:08.055Z,78.08
2023-02-23T00:46:10.834Z,77.82
2023-02-23T00:47:13.818Z,77.34
2023-02-23T00:48:15.738Z,77.47
2023-02-23T00:49:19.467Z,77.86
2023-02-23T00:50:22.644Z,77.71
2023-02-23T00:51:26.868Z,77.75
2023-02-23T00:52:29.036Z,77.69
2023-02-23T00:53:31.993Z,77.52
2023-02-23T00:54:33.911Z,77.98
2023-02-23T00:55:39.773Z,78.62
2023-02-23T00:56:42.643Z,78.90
2023-02-23T00:57:44.661Z,78.76
2023-02-23T00:58:47.154Z,78.56
2023-02-23T00:59:49.225Z,78.95
2023-02-23T01:00:53.231Z,79.35
2023-02-23T01:01:55.272Z,79.63
2023-02-23T01:02:57.424Z,79.00
2023-02-23T01:04:02.009Z,79.42
2023-02-23T01:05:05.078Z,79.53
2023-02-23T01:06:10.778Z,79.72
2023-02-23T01:07:13.398Z,80.66
2023-02-23T01:08:17.375Z,79.64
2023-02-23T01:09:19.274Z,79.89
2023-02-23T01:10:21.855Z,80.02
2023-02-23T01:11:27.634Z,80.13
2023-02-23T01:12:30.446Z,80.51
2023-02-23T01:13:32.724Z,80.25
2023-02-23T01:14:36.632Z,79.95
2023-02-23T01:15:43.605Z,79.87
2023-02-23T01:16:45.805Z,79.70
2023-02-23T01:17:48.009Z,79.31
2023-02-23T01:18:51.100Z,79.19
2023-02-23T01:19:53.119Z,78.82
2023-02-23T01:20:55.496Z,78.65
2023-02-23T01:21:57.577Z,79.28
2023-02-23T01:22:59.549Z,78.54
2023-02-23T01:24:02.627Z,78.10
2023-02-23T01:25:05.621Z,78.12
2023-02-23T01:26:20.181Z,79.77
2023-02-23T01:27:22.490Z,79.53
2023-02-23T01:28:24.793Z,80.20
2023-02-23T01:29:26.701Z,80.11
2023-02-23T01:30:29.913Z,79.84
2023-02-23T01:31:31.961Z,79.26
2023-02-23T01:32:35.959Z,80.20
2023-02-23T01:33:38.020Z,80.20
2023-02-23T01:34:39.878Z,79.93
2023-02-23T01:35:41.778Z,80.18
2023-02-23T01:36:44.590Z,80.14
2023-02-23T01:37:47.954Z,79.98
2023-02-23T01:38:50.113Z,80.04
2023-02-23T01:39:52.154Z,80.58
2023-02-23T01:40:54.237Z,80.63
2023-02-23T01:41:56.109Z,80.66
2023-02-23T01:43:14.214Z,80.82
2023-02-23T01:44:22.882Z,81.13
2023-02-23T01:45:34.542Z,81.58
2023-02-23T01:46:39.296Z,81.86
2023-02-23T01:47:41.812Z,81.94
2023-02-23T01:48:44.336Z,82.32
2023-02-23T01:49:46.919Z,82.74
2023-02-23T01:50:56.121Z,83.18
2023-02-23T01:52:10.898Z,83.68
2023-02-23T01:53:14.541Z,84.09
2023-02-23T01:54:22.993Z,84.24
2023-02-23T01:55:29.235Z,85.07
2023-02-23T01:56:35.229Z,84.81
2023-02-23T01:57:37.279Z,84.28
2023-02-23T01:58:42.744Z,84.33
2023-02-23T01:59:47.378Z,84.41
2023-02-23T02:02:03.674Z,84.19
2023-02-23T02:03:09.535Z,84.37
2023-02-23T02:04:13.045Z,85.05
2023-02-23T02:05:16.523Z,85.62
2023-02-23T02:06:22.569Z,86.04
2023-02-23T02:07:28.270Z,86.20
2023-02-23T02:08:32.806Z,85.76
2023-02-23T02:09:38.095Z,85.99
2023-02-23T02:10:40.324Z,85.89
2023-02-23T02:11:43.294Z,85.87
2023-02-23T02:12:51.765Z,85.95
2023-02-23T02:13:57.454Z,85.86
2023-02-23T02:15:00.023Z,85.70
2023-02-23T02:16:23.666Z,85.67
2023-02-23T02:17:35.040Z,85.21
2023-02-23T02:18:55.779Z,85.31
2023-02-23T02:20:07.600Z,85.54
2023-02-23T02:21:16.598Z,85.43
2023-02-23T02:22:31.693Z,85.44
2023-02-23T02:23:55.551Z,85.60
2023-02-23T02:25:16.478Z,85.66
2023-02-23T02:26:41.256Z,85.42
2023-02-23T02:27:49.770Z,86.05
2023-02-23T02:29:01.399Z,85.91
2023-02-23T02:31:42.087Z,85.85
2023-02-23T02:32:54.276Z,85.89
2023-02-23T02:34:06.023Z,86.37
2023-02-23T02:35:39.947Z,86.08
2023-02-23T02:37:06.911Z,85.48
2023-02-23T02:38:12.698Z,86.01
2023-02-23T02:39:26.992Z,86.03
2023-02-23T02:40:47.780Z,85.93
2023-02-23T02:41:59.565Z,86.20
2023-02-23T02:43:11.452Z,85.49
2023-02-23T02:44:33.866Z,86.03
2023-02-23T02:46:13.292Z,86.60
2023-02-23T02:48:59.228Z,86.72
2023-02-23T02:50:17.370Z,86.82
2023-02-23T02:51:28.650Z,86.77
2023-02-23T02:52:40.114Z,86.59
2023-02-23T02:53:46.915Z,86.85
2023-02-23T02:54:52.597Z,86.82
2023-02-23T02:55:58.438Z,86.79
2023-02-23T02:57:02.875Z,86.79
2023-02-23T02:58:07.299Z,86.81
2023-02-23T02:59:13.401Z,86.10
2023-02-23T03:00:22.903Z,86.82
2023-02-23T03:01:25.521Z,87.47
2023-02-23T03:02:28.863Z,87.55
2023-02-23T03:03:40.296Z,87.55
2023-02-23T03:04:42.423Z,87.41
2023-02-23T03:05:51.701Z,87.73
2023-02-23T03:07:03.910Z,87.57
2023-02-23T03:08:15.264Z,87.38
2023-02-23T03:09:55.570Z,86.99
2023-02-23T03:11:07.396Z,87.05
2023-02-23T03:12:13.352Z,86.62
2023-02-23T03:13:25.810Z,86.71
2023-02-23T03:14:58.179Z,86.70
2023-02-23T03:16:10.981Z,87.11
2023-02-23T03:17:31.728Z,87.07
2023-02-23T03:18:55.979Z,86.91
2023-02-23T03:20:04.869Z,86.84
2023-02-23T03:21:17.651Z,87.35
2023-02-23T03:22:29.685Z,87.52
2023-02-23T03:23:38.272Z,87.38
2023-02-23T03:24:44.190Z,87.00
2023-02-23T03:25:49.876Z,87.10
2023-02-23T03:27:05.708Z,87.25
2023-02-23T03:28:24.328Z,87.42
2023-02-23T03:29:48.522Z,87.46
2023-02-23T03:31:00.809Z,88.10
2023-02-23T03:32:26.450Z,88.08
2023-02-23T03:33:47.189Z,88.02
2023-02-23T03:34:53.044Z,87.84
2023-02-23T03:35:59.641Z,87.83
2023-02-23T03:37:24.010Z,88.06
2023-02-23T03:38:35.586Z,88.36
2023-02-23T03:39:44.281Z,88.23
2023-02-23T03:40:48.758Z,88.34
2023-02-23T03:41:54.072Z,88.75
2023-02-23T03:42:58.835Z,88.98
2023-02-23T03:44:04.516Z,88.65
2023-02-23T03:45:12.937Z,88.23
2023-02-23T03:46:17.789Z,88.59
2023-02-23T03:47:23.708Z,88.38
2023-02-23T03:48:27.048Z,88.62
2023-02-23T03:49:33.304Z,88.60
2023-02-23T03:50:54.371Z,88.78
2023-02-23T03:52:03.107Z,88.77
2023-02-23T03:53:09.169Z,88.73
2023-02-23T03:54:15.798Z,88.16
2023-02-23T03:55:21.519Z,88.59
2023-02-23T03:56:27.449Z,88.94
2023-02-23T03:57:31.990Z,88.89
2023-02-23T03:58:38.283Z,88.77
2023-02-23T03:59:43.974Z,88.77
2023-02-23T04:00:51.723Z,88.56
2023-02-23T04:01:55.522Z,89.40
2023-02-23T04:03:00.973Z,89.69
2023-02-23T04:04:06.023Z,89.67
2023-02-23T04:05:11.836Z,89.87
2023-02-23T04:06:17.941Z,89.86
2023-02-23T04:07:20.480Z,90.05
2023-02-23T04:08:25.854Z,90.05
2023-02-23T04:09:28.723Z,89.93
2023-02-23T04:10:34.485Z,90.28
2023-02-23T04:11:43.032Z,89.93
2023-02-23T04:12:58.016Z,89.89
2023-02-23T04:14:03.401Z,90.24
2023-02-23T04:15:11.985Z,90.53
2023-02-23T04:16:16.188Z,90.22
2023-02-23T04:17:19.008Z,90.37
2023-02-23T04:18:30.806Z,90.12
2023-02-23T04:19:32.952Z,89.84
2023-02-23T04:20:35.259Z,90.07
2023-02-23T04:21:37.594Z,89.77
2023-02-23T04:22:39.589Z,89.96
2023-02-23T04:23:42.376Z,90.13
2023-02-23T04:24:45.277Z,89.97
2023-02-23T04:25:47.176Z,89.32
2023-02-23T04:26:49.706Z,89.35
2023-02-23T04:27:51.883Z,89.37
2023-02-23T04:28:53.782Z,89.07
2023-02-23T04:29:55.815Z,89.61
2023-02-23T04:30:58.295Z,89.12
2023-02-23T04:32:00.390Z,89.07
2023-02-23T04:33:04.419Z,89.72
2023-02-23T04:34:07.048Z,89.72
2023-02-23T04:35:09.614Z,89.62
2023-02-23T04:36:12.344Z,89.70
2023-02-23T04:37:15.494Z,89.20
2023-02-23T04:38:17.409Z,89.25
2023-02-23T04:39:19.446Z,89.29
2023-02-23T04:40:24.197Z,89.31
2023-02-23T04:41:25.901Z,89.75
2023-02-23T04:42:27.797Z,89.84
2023-02-23T04:43:29.794Z,89.87
2023-02-23T04:44:31.716Z,90.03
2023-02-23T04:45:33.691Z,90.12
2023-02-23T04:46:35.916Z,89.85
2023-02-23T04:47:38.053Z,89.85
2023-02-23T04:48:39.943Z,90.10
2023-02-23T04:49:42.848Z,90.13
2023-02-23T04:50:45.202Z,89.97
2023-02-23T04:51:47.085Z,89.59
2023-02-23T04:52:49.994Z,89.52
2023-02-23T04:53:51.891Z,89.16
2023-02-23T04:54:53.925Z,88.92
2023-02-23T04:55:56.090Z,88.75
2023-02-23T04:56:58.661Z,88.30
2023-02-23T04:58:03.063Z,88.30
2023-02-23T04:59:05.215Z,88.60
2023-02-23T05:00:11.059Z,88.75
2023-02-23T05:01:14.334Z,88.58
2023-02-23T05:02:16.600Z,88.71
2023-02-23T05:03:18.489Z,88.35
2023-02-23T05:04:20.366Z,88.39
2023-02-23T05:05:22.342Z,88.36
2023-02-23T05:06:24.544Z,88.16
2023-02-23T05:07:26.523Z,87.94
2023-02-23T05:08:28.515Z,87.68
2023-02-23T05:09:31.419Z,87.70
2023-02-23T05:10:33.970Z,87.45
2023-02-23T05:11:37.804Z,87.39
2023-02-23T05:12:39.927Z,87.74
2023-02-23T05:13:41.809Z,87.22
2023-02-23T05:14:43.706Z,87.30
2023-02-23T05:15:45.764Z,87.38
2023-02-23T05:16:48.573Z,87.52
2023-02-23T05:17:50.556Z,87.46
2023-02-23T05:18:52.456Z,86.91
2023-02-23T05:19:54.341Z,86.71
2023-02-23T05:21:04.494Z,86.49
2023-02-23T05:22:06.778Z,86.77
2023-02-23T05:23:09.606Z,86.51
2023-02-23T05:24:12.885Z,87.12
2023-02-23T05:25:15.169Z,87.12
2023-02-23T05:26:18.074Z,87.04
2023-02-23T05:27:20.401Z,87.46
2023-02-23T05:28:22.318Z,87.48
2023-02-23T05:29:24.429Z,87.34
2023-02-23T05:30:26.574Z,87.34
2023-02-23T05:31:29.277Z,87.35
2023-02-23T05:32:31.533Z,87.45
2023-02-23T05:33:35.077Z,87.19
2023-02-23T05:34:38.411Z,87.80
2023-02-23T05:35:41.615Z,87.56
2023-02-23T05:36:43.736Z,87.21
2023-02-23T05:37:45.876Z,86.77
2023-02-23T05:38:48.381Z,86.58
2023-02-23T05:39:50.357Z,86.61
2023-02-23T05:40:52.948Z,86.59
2023-02-23T05:41:54.849Z,86.88
2023-02-23T05:43:00.322Z,86.62
2023-02-23T05:44:02.419Z,87.25
2023-02-23T05:45:05.833Z,87.23
2023-02-23T05:46:11.211Z,87.30
2023-02-23T05:47:13.197Z,87.63
2023-02-23T05:48:15.076Z,87.50
2023-02-23T05:49:17.195Z,87.40
2023-02-23T05:50:20.604Z,86.75
2023-02-23T05:51:23.904Z,86.33
2023-02-23T05:52:27.174Z,86.15
2023-02-23T05:53:29.202Z,86.64
2023-02-23T05:54:31.815Z,86.49
2023-02-23T05:55:35.329Z,86.05
2023-02-23T05:56:37.565Z,85.90
2023-02-23T05:57:39.824Z,85.25
2023-02-23T05:58:41.967Z,85.05
2023-02-23T05:59:44.276Z,84.87
2023-02-23T06:00:46.847Z,84.65
2023-02-23T06:01:48.757Z,85.09
2023-02-23T06:02:50.952Z,85.21
2023-02-23T06:03:53.312Z,85.24
2023-02-23T06:04:55.464Z,85.00
2023-02-23T06:05:58.939Z,85.10
2023-02-23T06:07:01.221Z,85.04
2023-02-23T06:08:05.288Z,84.36
2023-02-23T06:09:07.235Z,83.81
2023-02-23T06:10:11.259Z,83.60
2023-02-23T06:11:13.271Z,83.93
2023-02-23T06:12:15.260Z,83.98
2023-02-23T06:13:18.560Z,84.21
2023-02-23T06:14:20.627Z,83.78
2023-02-23T06:15:23.000Z,83.65
2023-02-23T06:16:26.991Z,83.35
2023-02-23T06:17:29.175Z,82.96
2023-02-23T06:18:31.053Z,82.69
2023-02-23T06:19:33.429Z,82.58
2023-02-23T06:20:39.978Z,82.57
2023-02-23T06:21:40.975Z,81.65
2023-02-23T06:22:42.883Z,80.88
2023-02-23T06:23:45.028Z,80.30
2023-02-23T06:24:46.915Z,80.35
2023-02-23T06:25:48.901Z,80.52
2023-02-23T06:26:54.171Z,80.05
2023-02-23T06:27:58.252Z,79.66
2023-02-23T06:29:00.781Z,79.68
2023-02-23T06:30:03.045Z,80.02
2023-02-23T06:31:05.729Z,79.55
2023-02-23T06:32:08.205Z,79.12
2023-02-23T06:33:10.221Z,78.50
2023-02-23T06:34:12.150Z,78.41
2023-02-23T06:35:14.015Z,78.48
2023-02-23T06:36:16.842Z,77.99
2023-02-23T06:37:18.759Z,77.81
2023-02-23T06:38:22.376Z,77.79
2023-02-23T06:39:24.364Z,77.86
2023-02-23T06:40:26.803Z,77.70
2023-02-23T06:41:29.605Z,76.96
2023-02-23T06:42:31.740Z,76.11
2023-02-23T06:43:33.630Z,75.59
2023-02-23T06:44:35.624Z,74.73
2023-02-23T06:45:38.642Z,73.94
2023-02-23T06:46:40.996Z,74.22
2023-02-23T06:47:45.435Z,73.98
2023-02-23T06:48:47.432Z,73.30
2023-02-23T06:49:49.324Z,73.50
2023-02-23T06:50:51.353Z,72.07
2023-02-23T06:51:53.493Z,71.70
2023-02-23T06:52:55.577Z,72.21
2023-02-23T06:53:58.433Z,71.76
2023-02-23T06:55:00.581Z,71.42
2023-02-23T06:56:03.851Z,71.04
2023-02-23T06:57:06.050Z,71.44
2023-02-23T06:58:08.000Z,71.50
2023-02-23T06:59:10.055Z,70.78
2023-02-23T07:00:14.918Z,69.69
2023-02-23T07:01:17.802Z,68.70
2023-02-23T07:02:20.742Z,67.99
2023-02-23T07:03:23.502Z,67.19
2023-02-23T07:04:25.523Z,66.83
2023-02-23T07:05:27.493Z,66.05
2023-02-23T07:06:29.696Z,64.66
2023-02-23T07:07:31.597Z,63.73
2023-02-23T07:08:34.082Z,62.92
2023-02-23T07:09:36.254Z,62.86
2023-02-23T07:10:38.573Z,62.73
2023-02-23T07:11:41.370Z,62.97
2023-02-23T07:12:45.570Z,62.94
2023-02-23T07:13:47.575Z,63.30
2023-02-23T07:14:49.709Z,64.32
2023-02-23T07:15:55.457Z,64.34
2023-02-23T07:16:58.144Z,63.75
2023-02-23T07:18:00.289Z,62.98
2023-02-23T07:19:02.961Z,63.24
2023-02-23T07:20:06.502Z,63.18
2023-02-23T07:21:08.408Z,63.25
2023-02-23T07:22:10.278Z,61.88
2023-02-23T07:23:12.201Z,62.55
2023-02-23T07:24:14.081Z,62.41
2023-02-23T07:25:16.214Z,62.97
2023-02-23T07:26:18.466Z,62.11
2023-02-23T07:27:20.546Z,61.31
2023-02-23T07:28:22.848Z,60.86
2023-02-23T07:29:24.740Z,60.76
2023-02-23T07:30:27.029Z,59.47
2023-02-23T07:31:29.441Z,60.80
2023-02-23T07:32:31.648Z,61.30
2023-02-23T07:33:34.062Z,60.54
2023-02-23T07:34:37.006Z,59.52
2023-02-23T07:35:38.916Z,60.47
2023-02-23T07:36:41.022Z,60.23
2023-02-23T07:37:43.289Z,60.54
2023-02-23T07:38:45.270Z,59.83
2023-02-23T07:39:47.249Z,59.03
2023-02-23T07:40:50.955Z,58.72
2023-02-23T07:41:52.950Z,57.34
2023-02-23T07:42:54.975Z,57.40
2023-02-23T07:43:59.111Z,57.66
2023-02-23T07:45:01.486Z,57.56
2023-02-23T07:46:05.507Z,58.26
2023-02-23T07:47:07.787Z,58.48
2023-02-23T07:48:09.758Z,57.91
2023-02-23T07:49:12.262Z,57.69
2023-02-23T07:50:15.465Z,56.84
2023-02-23T07:51:18.181Z,55.97
2023-02-23T07:52:20.642Z,56.35
2023-02-23T07:53:23.362Z,57.41
2023-02-23T07:54:25.256Z,57.35
2023-02-23T07:55:27.140Z,56.52
2023-02-23T07:56:29.646Z,56.70
2023-02-23T07:57:32.576Z,57.44
2023-02-23T07:58:34.632Z,57.13
2023-02-23T07:59:39.060Z,55.81
2023-02-23T08:00:41.960Z,55.58
2023-02-23T08:01:44.966Z,54.97
2023-02-23T08:02:47.084Z,54.52
2023-02-23T08:03:49.515Z,54.72
2023-02-23T08:04:51.577Z,54.77
2023-02-23T08:05:53.679Z,55.32
2023-02-23T08:06:56.047Z,55.22
2023-02-23T08:07:58.945Z,55.02
2023-02-23T08:09:02.592Z,55.08
2023-02-23T08:10:06.182Z,54.61
2023-02-23T08:11:08.705Z,53.28
2023-02-23T08:12:11.292Z,53.24
2023-02-23T08:13:13.733Z,52.44
2023-02-23T08:14:15.643Z,52.10
2023-02-23T08:15:17.784Z,52.40
2023-02-23T08:16:19.996Z,52.80
2023-02-23T08:17:22.342Z,52.51
2023-02-23T08:18:24.978Z,53.39
2023-02-23T08:19:27.949Z,53.54
2023-02-23T08:20:30.273Z,52.95
2023-02-23T08:21:32.296Z,52.26
2023-02-23T08:22:48.507Z,51.74
2023-02-23T08:23:38.911Z,51.69
2023-02-23T08:24:41.118Z,51.64
2023-02-23T08:25:43.417Z,52.62
2023-02-23T08:26:45.548Z,52.11
2023-02-23T08:27:48.864Z,51.29
2023-02-23T08:28:54.920Z,50.52
2023-02-23T08:29:57.209Z,50.52
2023-02-23T08:30:59.681Z,49.52
2023-02-23T08:32:05.827Z,49.82
2023-02-23T08:33:08.101Z,49.82
2023-02-23T08:34:10.290Z,49.69
2023-02-23T08:35:13.780Z,48.57
2023-02-23T08:36:15.986Z,48.08
2023-02-23T08:37:18.206Z,47.94
2023-02-23T08:38:21.805Z,49.43
2023-02-23T08:39:23.864Z,51.38
2023-02-23T08:40:27.225Z,52.44
2023-02-23T08:41:29.273Z,52.18
2023-02-23T08:42:31.947Z,51.23
2023-02-23T08:43:33.894Z,50.90
2023-02-23T08:44:35.779Z,51.67
2023-02-23T08:45:38.425Z,51.66
2023-02-23T08:46:40.634Z,51.89
2023-02-23T08:47:42.567Z,51.63
2023-02-23T08:48:44.664Z,51.53
2023-02-23T08:49:47.800Z,51.51
2023-02-23T08:50:50.611Z,51.37
2023-02-23T08:51:52.796Z,51.24
2023-02-23T08:52:54.844Z,50.78
2023-02-23T08:53:57.941Z,50.46
2023-02-23T08:54:59.814Z,50.24
2023-02-23T08:56:05.162Z,51.43
2023-02-23T08:57:07.326Z,51.29
2023-02-23T08:58:10.123Z,51.75
2023-02-23T08:59:13.137Z,51.56
2023-02-23T09:00:19.103Z,51.38
2023-02-23T09:01:21.641Z,51.58
2023-02-23T09:02:23.703Z,50.79
2023-02-23T09:03:27.415Z,50.39
2023-02-23T09:04:31.450Z,51.45
2023-02-23T09:05:36.699Z,51.49
2023-02-23T09:06:39.494Z,51.45
2023-02-23T09:07:43.212Z,51.59
2023-02-23T09:08:46.980Z,51.59
2023-02-23T09:09:56.170Z,51.53
2023-02-23T09:10:58.375Z,50.70
2023-02-23T09:12:02.046Z,51.30
2023-02-23T09:13:04.283Z,51.10
2023-02-23T09:14:06.168Z,51.26
2023-02-23T09:15:09.482Z,51.69
2023-02-23T09:16:13.299Z,51.66
2023-02-23T09:17:17.766Z,52.27
2023-02-23T09:18:19.202Z,51.57
2023-02-23T09:19:21.206Z,51.71
2023-02-23T09:20:24.085Z,51.31
2023-02-23T09:21:26.626Z,51.04
2023-02-23T09:22:28.774Z,50.72
2023-02-23T09:23:30.886Z,50.42
2023-02-23T09:24:32.954Z,50.30
2023-02-23T09:25:43.755Z,50.58
2023-02-23T09:26:46.076Z,50.59
2023-02-23T09:27:50.875Z,50.45
2023-02-23T09:28:52.877Z,50.66
2023-02-23T09:29:55.832Z,51.17
2023-02-23T09:30:57.991Z,52.06
2023-02-23T09:32:00.411Z,51.63
2023-02-23T09:33:02.710Z,50.88
2023-02-23T09:34:04.751Z,50.79
2023-02-23T09:35:07.894Z,51.38
2023-02-23T09:36:13.291Z,51.13
2023-02-23T09:37:15.438Z,50.65
2023-02-23T09:38:17.310Z,50.37
2023-02-23T09:39:29.152Z,50.20
2023-02-23T09:40:26.429Z,50.77
2023-02-23T09:42:01.111Z,50.73
2023-02-23T09:43:19.147Z,50.19
2023-02-23T09:44:34.218Z,49.82
2023-02-23T09:45:40.154Z,49.57
2023-02-23T09:48:00.484Z,49.07
2023-02-23T09:49:05.253Z,49.76
2023-02-23T09:50:19.110Z,49.69
2023-02-23T09:51:22.748Z,49.35
2023-02-23T09:52:28.441Z,50.30
2023-02-23T09:53:37.027Z,49.84
2023-02-23T09:54:39.388Z,50.33
2023-02-23T09:55:43.141Z,50.00
2023-02-23T09:56:47.652Z,50.07
2023-02-23T09:57:49.955Z,49.66
2023-02-23T09:58:52.006Z,49.73
2023-02-23T09:59:54.103Z,49.38
2023-02-23T10:01:06.551Z,49.33
2023-02-23T10:02:29.140Z,49.23
2023-02-23T10:03:34.411Z,48.56
2023-02-23T10:04:46.318Z,48.04
2023-02-23T10:05:54.952Z,47.68
2023-02-23T10:07:06.886Z,47.86
2023-02-23T10:08:24.873Z,47.91
2023-02-23T10:09:47.357Z,48.11
2023-02-23T10:12:31.195Z,48.12
2023-02-23T10:13:37.109Z,47.75
2023-02-23T10:14:43.477Z,48.09
2023-02-23T10:15:55.105Z,47.95
2023-02-23T10:17:03.892Z,48.16
2023-02-23T10:18:18.363Z,47.19
2023-02-23T10:19:50.132Z,46.99
2023-02-23T10:21:06.068Z,46.89
2023-02-23T10:22:10.025Z,47.05
2023-02-23T10:23:15.709Z,47.35
2023-02-23T10:24:21.408Z,47.51
2023-02-23T10:25:26.498Z,47.30
2023-02-23T10:26:35.160Z,47.22
2023-02-23T10:28:55.312Z,47.50
2023-02-23T10:29:59.876Z,47.75
2023-02-23T10:31:05.628Z,48.33
2023-02-23T10:32:29.741Z,48.12
2023-02-23T10:33:35.573Z,47.07
2023-02-23T10:34:38.944Z,46.33
2023-02-23T10:35:40.877Z,46.07
2023-02-23T10:36:49.836Z,47.65
2023-02-23T10:37:53.570Z,47.57
2023-02-23T10:38:55.843Z,47.09
2023-02-23T10:39:59.067Z,46.62
2023-02-23T10:41:01.469Z,46.18
2023-02-23T10:42:08.571Z,45.89
2023-02-23T10:43:12.885Z,45.87
2023-02-23T10:44:21.785Z,45.58
2023-02-23T10:45:26.263Z,45.54
2023-02-23T10:46:32.563Z,45.17
2023-02-23T10:47:35.761Z,45.26
2023-02-23T10:48:40.833Z,45.15
2023-02-23T10:49:49.180Z,45.17
2023-02-23T10:50:54.630Z,44.42
2023-02-23T10:51:57.552Z,44.39
2023-02-23T10:53:06.083Z,43.84
2023-02-23T10:54:35.077Z,43.55
2023-02-23T10:55:38.338Z,43.28
2023-02-23T10:56:45.594Z,43.85
2023-02-23T10:57:47.752Z,43.40
2023-02-23T10:58:55.624Z,43.67
2023-02-23T11:00:22.643Z,43.67
2023-02-23T11:01:34.798Z,43.73
2023-02-23T11:02:37.382Z,43.67
2023-02-23T11:03:52.271Z,44.83
2023-02-23T11:04:57.972Z,44.56
2023-02-23T11:06:00.976Z,45.43
2023-02-23T11:07:09.521Z,45.35
2023-02-23T11:08:16.150Z,44.88
2023-02-23T11:09:44.477Z,44.25
2023-02-23T11:10:34.765Z,43.95
2023-02-23T11:11:38.314Z,43.80
2023-02-23T11:12:40.457Z,43.92
2023-02-23T11:13:45.730Z,44.04
2023-02-23T11:14:49.854Z,44.13
2023-02-23T11:15:58.665Z,44.24
2023-02-23T11:17:00.787Z,44.17
2023-02-23T11:18:05.282Z,44.25
2023-02-23T11:19:11.491Z,44.55
2023-02-23T11:20:25.786Z,44.72
2023-02-23T11:21:33.890Z,44.59
2023-02-23T11:22:38.662Z,44.38
2023-02-23T11:23:41.394Z,44.36
2023-02-23T11:24:43.753Z,44.18
2023-02-23T11:25:49.193Z,44.22
2023-02-23T11:26:54.225Z,44.24
2023-02-23T11:27:58.208Z,44.15
2023-02-23T11:29:03.924Z,44.04
2023-02-23T11:30:09.085Z,44.23
2023-02-23T11:31:21.688Z,44.00
2023-02-23T11:32:34.370Z,43.71
2023-02-23T11:33:38.589Z,43.60
2023-02-23T11:34:41.933Z,43.62
2023-02-23T11:35:44.900Z,43.87
2023-02-23T11:37:03.278Z,43.69
2023-02-23T11:38:23.313Z,43.51
2023-02-23T11:39:25.370Z,43.28
2023-02-23T11:40:31.456Z,43.44
2023-02-23T11:41:35.172Z,43.41
2023-02-23T11:42:37.324Z,43.42
2023-02-23T11:43:43.034Z,43.22
2023-02-23T11:44:51.527Z,43.32
2023-02-23T11:45:56.861Z,43.41
2023-02-23T11:46:59.264Z,43.13
2023-02-23T11:48:04.548Z,42.93
2023-02-23T11:49:11.138Z,42.88
2023-02-23T11:50:25.820Z,42.97
2023-02-23T11:51:37.518Z,43.68
2023-02-23T11:52:42.863Z,43.72
2023-02-23T11:53:47.102Z,44.03
2023-02-23T11:54:56.216Z,44.38
2023-02-23T11:56:01.707Z,44.36
2023-02-23T11:57:05.356Z,43.92
2023-02-23T11:58:31.160Z,43.61
2023-02-23T11:59:37.824Z,43.67
2023-02-23T12:00:40.695Z,44.33
2023-02-23T12:01:49.670Z,45.65
2023-02-23T12:02:58.390Z,46.35
2023-02-23T12:04:01.108Z,46.58
2023-02-23T12:05:22.063Z,46.70
2023-02-23T12:06:41.290Z,46.19
2023-02-23T12:08:07.905Z,45.84
2023-02-23T12:09:28.695Z,46.85
2023-02-23T12:10:43.274Z,47.90
2023-02-23T12:12:04.526Z,48.59
2023-02-23T12:13:13.325Z,48.61
2023-02-23T12:14:24.677Z,48.43
2023-02-23T12:15:36.089Z,47.97
2023-02-23T12:16:42.054Z,47.41
2023-02-23T12:17:48.260Z,47.55
2023-02-23T12:18:56.963Z,47.88
2023-02-23T12:20:02.643Z,47.70
2023-02-23T12:21:29.334Z,47.29
2023-02-23T12:24:11.548Z,46.74
2023-02-23T12:25:17.277Z,46.55
2023-02-23T12:26:22.401Z,46.84
2023-02-23T12:27:46.186Z,47.26
2023-02-23T12:31:49.679Z,48.04
2023-02-23T12:33:04.340Z,47.74
2023-02-23T12:34:27.970Z,47.99
2023-02-23T12:35:48.726Z,47.70
2023-02-23T12:38:15.137Z,47.68
2023-02-23T12:39:29.807Z,47.64
2023-02-23T12:40:35.858Z,47.49
2023-02-23T12:42:02.697Z,47.36
2023-02-23T12:43:28.426Z,47.24
2023-02-23T12:44:43.286Z,47.04
2023-02-23T12:46:06.688Z,47.21
2023-02-23T12:47:28.930Z,47.27
2023-02-23T12:48:49.923Z,47.85
2023-02-23T12:49:58.596Z,48.06
2023-02-23T12:51:04.585Z,47.60
2023-02-23T12:52:10.385Z,47.22
2023-02-23T12:53:19.360Z,46.98
2023-02-23T12:54:21.638Z,46.72
2023-02-23T12:55:56.372Z,46.86
2023-02-23T12:57:10.767Z,46.87
2023-02-23T12:58:25.695Z,46.62
2023-02-23T12:59:46.541Z,46.72
2023-02-23T13:01:00.897Z,46.79
2023-02-23T13:02:15.827Z,46.45
2023-02-23T13:03:38.558Z,46.62
2023-02-23T13:05:10.428Z,46.79
2023-02-23T13:06:16.692Z,46.52
2023-02-23T13:07:25.682Z,46.23
2023-02-23T13:08:49.602Z,46.03
2023-02-23T13:10:06.829Z,46.60
2023-02-23T13:11:40.096Z,46.95
2023-02-23T13:12:54.865Z,46.63
2023-02-23T13:14:00.793Z,46.29
2023-02-23T13:15:36.475Z,46.49
2023-02-23T13:18:28.024Z,46.40
2023-02-23T13:19:36.736Z,46.33
2023-02-23T13:21:11.920Z,46.10
2023-02-23T13:22:30.027Z,45.97
2023-02-23T13:23:47.429Z,45.72
2023-02-23T13:24:54.533Z,45.76
2023-02-23T13:26:05.133Z,45.46
2023-02-23T13:27:21.588Z,45.17
2023-02-23T13:28:30.044Z,45.34
2023-02-23T13:30:58.533Z,44.81
2023-02-23T13:32:03.700Z,44.50
2023-02-23T13:33:09.937Z,44.32
2023-02-23T13:34:17.326Z,44.23
2023-02-23T13:35:21.083Z,44.42
2023-02-23T13:36:28.386Z,44.55
2023-02-23T13:37:46.515Z,44.95
2023-02-23T13:39:21.004Z,44.80
2023-02-23T13:40:46.054Z,44.75
2023-02-23T13:42:07.123Z,44.88
2023-02-23T13:43:19.096Z,44.98
2023-02-23T13:44:49.000Z,44.82
2023-02-23T13:46:04.106Z,44.60
2023-02-23T13:47:22.399Z,44.50
2023-02-23T13:48:56.268Z,44.47
2023-02-23T13:50:11.339Z,44.50
2023-02-23T13:51:17.355Z,44.68
2023-02-23T13:52:23.512Z,44.88
2023-02-23T13:53:38.360Z,45.74
2023-02-23T13:54:45.171Z,46.37
2023-02-23T13:55:50.395Z,46.50
2023-02-23T13:56:58.250Z,46.76
2023-02-23T13:58:16.277Z,47.07
2023-02-23T13:59:24.843Z,47.38
2023-02-23T14:00:27.104Z,47.70
2023-02-23T14:01:32.241Z,47.36
2023-02-23T14:02:38.241Z,46.89
2023-02-23T14:03:47.137Z,46.87
2023-02-23T14:04:49.978Z,46.88
2023-02-23T14:05:55.827Z,47.25
2023-02-23T14:07:04.904Z,47.26
2023-02-23T14:08:10.088Z,47.36
2023-02-23T14:09:21.704Z,47.12
2023-02-23T14:10:27.003Z,47.26
2023-02-23T14:11:44.990Z,47.71
2023-02-23T14:13:15.110Z,47.52
2023-02-23T14:14:36.267Z,47.01
2023-02-23T14:15:47.569Z,46.88
2023-02-23T14:16:51.507Z,46.55
2023-02-23T14:17:59.191Z,46.55
2023-02-23T14:19:10.479Z,46.83
2023-02-23T14:20:27.911Z,47.21
2023-02-23T14:21:26.849Z,47.68
2023-02-23T14:22:29.545Z,47.57
2023-02-23T14:23:53.534Z,47.60
2023-02-23T14:25:35.546Z,47.76
2023-02-23T14:26:41.993Z,48.21
2023-02-23T14:27:44.678Z,48.07
2023-02-23T14:29:07.281Z,48.43
2023-02-23T14:31:29.265Z,49.32
2023-02-23T14:32:35.217Z,49.70
2023-02-23T14:33:47.366Z,49.90
2023-02-23T14:34:55.796Z,50.00
2023-02-23T14:36:01.743Z,50.23